Date,TemperatureHighF,TemperatureAvgF,TemperatureLowF,DewpointHighF,DewpointAvgF,DewpointLowF,HumidityHigh,HumidityAvg,HumidityLow,PressureMaxIn,PressureMinIn,WindSpeedMaxMPH,WindSpeedAvgMPH,GustSpeedMaxMPH,PrecipitationSumIn
2013-9-1,86,76,69,75,71,68,100,88,67,29.90,29.76,17,1,17,0.00
2013-9-2,83,73,61,70,66,59,99,80,54,29.99,29.87,11,2,11,0.00
2013-9-3,85,70,55,68,61,54,100,77,45,30.08,29.98,8,1,8,0.00
2013-9-4,86,70,54,68,61,53,99,77,47,30.16,30.06,7,0,7,0.00
2013-9-5,85,70,56,68,62,55,99,77,45,30.20,30.11,9,1,9,0.00
2013-9-6,87,71,58,69,63,57,99,80,45,30.16,30.03,8,1,8,0.00
2013-9-7,92,74,60,73,66,59,100,79,45,30.06,29.93,9,1,9,0.00
2013-9-8,90,75,63,76,70,63,99,86,58,29.96,29.87,8,0,8,0.00
2013-9-9,94,78,66,75,69,65,100,77,44,29.99,29.91,7,1,10,0.00
2013-9-10,93,77,63,73,67,62,100,75,38,30.11,29.98,7,1,12,0.00
2013-9-11,93,76,63,76,69,62,99,81,47,30.14,30.03,14,0,14,0.04
2013-9-12,89,76,65,74,69,65,100,82,57,30.07,29.98,14,1,14,0.00
2013-9-13,76,66,52,65,54,50,93,68,44,30.11,30.02,11,2,11,0.00
2013-9-14,77,62,48,57,52,45,94,72,45,30.14,30.02,7,1,14,0.00
2013-9-15,87,70,55,69,59,50,87,70,48,30.08,30.01,11,1,11,0.00
2013-9-16,74,68,64,69,65,61,97,92,84,30.19,30.06,10,1,10,0.15
2013-9-17,81,70,62,71,66,62,99,88,62,30.18,30.02,12,2,12,0.74
2013-9-18,83,73,68,73,69,66,97,90,69,30.04,29.93,12,2,12,0.07
2013-9-19,89,76,70,75,70,67,96,83,55,29.99,29.86,17,2,17,0.00
2013-9-20,72,65,56,70,63,53,99,92,76,29.96,29.88,15,2,15,2.12
2013-9-21,73,59,47,57,51,46,98,77,46,30.03,29.93,10,2,13,0.00
2013-9-22,75,58,43,58,50,42,99,78,46,30.03,29.91,10,1,10,0.00
2013-9-23,76,61,48,59,54,47,99,80,53,29.98,29.84,19,2,19,0.00
2013-9-24,78,66,55,62,59,53,96,80,56,29.93,29.82,13,1,13,0.01
2013-9-25,78,64,51,64,58,50,98,83,57,29.89,29.82,9,1,9,0.00
2013-9-26,81,67,55,66,61,54,99,83,55,29.99,29.87,10,2,13,0.00
2013-9-27,82,72,62,70,64,61,98,80,55,30.04,29.93,15,2,15,0.00
2013-9-28,78,68,62,70,65,61,98,90,74,30.03,29.91,15,3,15,0.60
2013-9-29,74,63,55,61,57,54,98,83,53,30.07,29.96,12,2,12,0.02
2013-9-30,76,66,54,67,63,53,100,90,69,29.97,29.87,11,2,11,0.00